Map

Track Data

SID SEASON NUMBER BASIN SUBBASIN NAME ISO_TIME NATURE LAT LON WMO_WIND WMO_PRES WMO_AGENCY TRACK_TYPE DIST2LAND LANDFALL IFLAG USA_AGENCY USA_ATCF_ID USA_LAT USA_LON USA_RECORD USA_STATUS USA_WIND USA_PRES USA_SSHS USA_R34_NE USA_R34_SE USA_R34_SW USA_R34_NW USA_R50_NE USA_R50_SE USA_R50_SW USA_R50_NW USA_R64_NE USA_R64_SE USA_R64_SW USA_R64_NW USA_POCI USA_ROCI USA_RMW USA_EYE TOKYO_LAT TOKYO_LON TOKYO_GRADE TOKYO_WIND TOKYO_PRES TOKYO_R50_DIR TOKYO_R50_LONG TOKYO_R50_SHORT TOKYO_R30_DIR TOKYO_R30_LONG TOKYO_R30_SHORT TOKYO_LAND CMA_LAT CMA_LON CMA_CAT CMA_WIND CMA_PRES HKO_LAT HKO_LON HKO_CAT HKO_WIND HKO_PRES NEWDELHI_LAT NEWDELHI_LON NEWDELHI_GRADE NEWDELHI_WIND NEWDELHI_PRES NEWDELHI_CI NEWDELHI_DP NEWDELHI_POCI REUNION_LAT REUNION_LON REUNION_TYPE REUNION_WIND REUNION_PRES REUNION_TNUM REUNION_CI REUNION_RMW REUNION_R34_NE REUNION_R34_SE REUNION_R34_SW REUNION_R34_NW REUNION_R50_NE REUNION_R50_SE REUNION_R50_SW REUNION_R50_NW REUNION_R64_NE REUNION_R64_SE REUNION_R64_SW REUNION_R64_NW BOM_LAT BOM_LON BOM_TYPE BOM_WIND BOM_PRES BOM_TNUM BOM_CI BOM_RMW BOM_R34_NE BOM_R34_SE BOM_R34_SW BOM_R34_NW BOM_R50_NE BOM_R50_SE BOM_R50_SW BOM_R50_NW BOM_R64_NE BOM_R64_SE BOM_R64_SW BOM_R64_NW BOM_ROCI BOM_POCI BOM_EYE BOM_POS_METHOD BOM_PRES_METHOD NADI_LAT NADI_LON NADI_CAT NADI_WIND NADI_PRES WELLINGTON_LAT WELLINGTON_LON WELLINGTON_WIND WELLINGTON_PRES DS824_LAT DS824_LON DS824_STAGE DS824_WIND DS824_PRES TD9636_LAT TD9636_LON TD9636_STAGE TD9636_WIND TD9636_PRES TD9635_LAT TD9635_LON TD9635_WIND TD9635_PRES TD9635_ROCI NEUMANN_LAT NEUMANN_LON NEUMANN_CLASS NEUMANN_WIND NEUMANN_PRES MLC_LAT MLC_LON MLC_CLASS MLC_WIND MLC_PRES USA_GUST BOM_GUST BOM_GUST_PER REUNION_GUST REUNION_GUST_PER USA_SEAHGT USA_SEARAD_NE USA_SEARAD_SE USA_SEARAD_SW USA_SEARAD_NW STORM_SPEED STORM_DIR
1967072S15157 1967 22 SP EA DULCIE 1967-03-12 20:00:00 NR -15.0000 156.500 main 683 683 __________O___ -1 -15.0000 156.500 1 20 6 254
1967072S15157 1967 22 SP EA DULCIE 1967-03-12 21:00:00 NR -15.0304 156.393 main 689 689 __________P___ -1 -15.0304 156.393 1 20 7 255
1967072S15157 1967 22 SP EA DULCIE 1967-03-13 00:00:00 TS -15.1183 156.036 main 722 722 O________OP_O_ jtwc_sh SH231967 -15.1000 156.000 20 -1 -15.1000 156.000 TC 20 -15.1366 156.071 1 20 -15.1000 156.000 TC 20 6 248
1967072S15157 1967 22 SP EA DULCIE 1967-03-13 02:00:00 TS -15.2169 155.902 1000 bom main 738 738 P_____O__PP_P_ SH231967 -15.2411 155.802 20 -1 -15.0000 156.500 1000 -15.2411 155.802 TC 20 -15.2353 155.856 1 20 -15.2404 155.896 TC 20 6 234
1967072S15157 1967 22 SP EA DULCIE 1967-03-13 03:00:00 TS -15.2810 155.806 main 753 753 P_____P__PP_P_ SH231967 -15.3176 155.703 20 -1 -15.0844 156.212 999 -15.3176 155.703 TC 20 -15.2976 155.748 1 20 -15.3168 155.822 TC 20 8 234
1967072S15157 1967 22 SP EA DULCIE 1967-03-13 05:00:00 TS -15.4556 155.556 998 bom main 763 755 P_____O__PP_P_ SH231967 -15.4946 155.502 20 -1 -15.3000 155.700 998 -15.4946 155.502 TC 20 -15.4558 155.530 1 20 -15.4942 155.583 TC 20 9 233
1967072S15157 1967 22 SP EA DULCIE 1967-03-13 06:00:00 TS -15.5582 155.429 main 756 749 O_____P__OP_O_ jtwc_sh SH231967 -15.6000 155.400 20 -1 -15.4508 155.504 998 -15.6000 155.400 TC 20 -15.5547 155.421 1 20 -15.6000 155.400 TC 20 11 227
1967072S15157 1967 22 SP EA DULCIE 1967-03-13 08:00:00 TS -15.8293 155.145 998 bom main 752 752 P_____O__PO_P_ SH231967 -15.8521 155.195 20 -1 -15.8000 155.200 998 -15.8521 155.195 TC 20 -15.8000 155.200 1 20 -15.8530 154.905 TC 20 12 224
1967072S15157 1967 22 SP EA DULCIE 1967-03-13 09:00:00 TS -15.9790 155.002 main 762 762 P_____P__PP_P_ SH231967 -15.9975 155.092 20 -1 -15.9612 155.053 998 -15.9975 155.092 TC 20 -15.9487 155.089 1 20 -15.9985 154.634 TC 20 12 219
1967072S15157 1967 22 SP EA DULCIE 1967-03-13 11:00:00 TS -16.3115 154.738 998 bom main 766 745 P_____O__PP_P_ SH231967 -16.3224 154.894 20 -1 -16.3000 154.800 998 -16.3224 154.894 TC 20 -16.2900 154.869 1 20 -16.3228 154.158 TC 20 13 215
1967072S15157 1967 22 SP EA DULCIE 1967-03-13 12:00:00 TS -16.4940 154.625 main 745 710 O_____P__OP_O_ jtwc_sh SH231967 -16.5000 154.800 20 -1 -16.4867 154.687 998 -16.5000 154.800 TC 20 -16.4771 154.763 1 20 -16.5000 154.000 TC 20 13 204
1967072S15157 1967 22 SP EA DULCIE 1967-03-13 14:00:00 TS -16.8959 154.462 998 bom main 710 689 P_____O__PP_P_ SH231967 -16.8980 154.604 20 -1 -16.9000 154.500 998 -16.8980 154.604 TC 20 -16.8701 154.567 1 20 -16.8977 153.986 TC 20 13 199
1967072S15157 1967 22 SP EA DULCIE 1967-03-13 15:00:00 TS -17.1095 154.403 main 689 657 P_____P__PP_P_ SH231967 -17.1075 154.513 20 -1 -17.1417 154.420 998 -17.1075 154.513 TC 20 -17.0705 154.479 1 20 -17.1073 154.051 TC 20 13 193
1967072S15157 1967 22 SP EA DULCIE 1967-03-13 17:00:00 TS -17.5222 154.318 998 bom main 657 646 P_____O__PP_P_ SH231967 -17.5150 154.358 20 -1 -17.6000 154.300 998 -17.5150 154.358 TC 20 -17.4651 154.331 1 20 -17.5149 154.228 TC 20 12 191
1967072S15157 1967 22 SP EA DULCIE 1967-03-13 18:00:00 TS -17.7027 154.288 main 646 612 O_____P__OP_O_ jtwc_sh SH231967 -17.7000 154.300 20 -1 -17.7625 154.253 998 -17.7000 154.300 TC 20 -17.6538 154.274 1 20 -17.7000 154.300 TC 20 10 191
1967072S15157 1967 22 SP EA DULCIE 1967-03-13 20:00:00 TS -18.0018 154.223 998 bom main 612 603 P_____O__PO_P_ SH231967 -18.0090 154.208 20 -1 -18.0000 154.200 998 -18.0090 154.208 TC 20 -18.0000 154.200 1 20 -18.0091 154.272 TC 20 9 191
1967072S15157 1967 22 SP EA DULCIE 1967-03-13 21:00:00 TS -18.1306 154.204 main 603 585 P_____P__PP_P_ SH231967 -18.1449 154.182 20 -1 -18.1079 154.181 998 -18.1449 154.182 TC 20 -18.1383 154.186 1 19 -18.1450 154.243 TC 20 7 0
1967072S15157 1967 22 SP EA DULCIE 1967-03-13 23:00:00 TS -18.3602 154.204 998 bom main 577 577 P_____O__PP_P_ SH231967 -18.3885 154.178 20 -1 -18.3000 154.200 998 -18.3885 154.178 TC 20 -18.3878 154.200 1 17 -18.3886 154.199 TC 20 7 176
1967072S15157 1967 22 SP EA DULCIE 1967-03-14 00:00:00 TS -18.4676 154.229 main 568 558 O_____P__OP_O_ jtwc_sh SH231967 -18.5000 154.200 20 -1 -18.4054 154.251 998 -18.5000 154.200 TC 20 -18.5004 154.225 1 16 -18.5000 154.200 TC 20 7 161
1967072S15157 1967 22 SP EA DULCIE 1967-03-14 02:00:00 TS -18.6770 154.325 998 bom main 558 557 P_____O__PP_P_ SH231967 -18.7267 154.294 16 -1 -18.6000 154.400 998 -18.7267 154.294 TC 16 -18.7047 154.306 1 15 -18.7267 154.294 TC 18 7 153
1967072S15157 1967 22 SP EA DULCIE 1967-03-14 03:00:00 TS -18.7682 154.389 main 557 556 P_____P__PP_P_ SH231967 -18.8300 154.362 15 -1 -18.6637 154.472 997 -18.8300 154.362 TC 15 -18.7977 154.359 1 14 -18.8300 154.362 TC 17 7 144
1967072S15157 1967 22 SP EA DULCIE 1967-03-14 05:00:00 TS -18.9392 154.529 996 bom main 556 548 P_____O__PP_P_ SH231967 -19.0167 154.520 11 -1 -18.8000 154.600 996 -19.0167 154.520 TC 11 -18.9692 154.485 1 12 -19.0167 154.520 TC 15 7 143
1967072S15157 1967 22 SP EA DULCIE 1967-03-14 06:00:00 TS -19.0296 154.597 main 555 547 O_____P__OP_O_ jtwc_sh SH231967 -19.1000 154.600 10 -1 -18.9284 154.630 996 -19.1000 154.600 TC 10 -19.0489 154.554 1 11 -19.1000 154.600 TC 15 7 146
1967072S15157 1967 22 SP EA DULCIE 1967-03-14 08:00:00 TS -19.2084 154.727 996 bom main 547 547 P_____O__PO_P_ SH231967 -19.2491 154.733 10 -1 -19.2000 154.700 996 -19.2491 154.733 TC 10 -19.2000 154.700 1 10 -19.2491 154.733 TC 15 6 143
1967072S15157 1967 22 SP EA DULCIE 1967-03-14 09:00:00 TS -19.2858 154.800 main 548 548 P_____P__PP_P_ SH231967 -19.3150 154.800 10 -1 -19.2825 154.790 996 -19.3150 154.800 TC 10 -19.2801 154.762 1 10 -19.3150 154.800 TC 15 6 136
1967072S15157 1967 22 SP EA DULCIE 1967-03-14 11:00:00 TS -19.4256 154.953 996 bom main 557 549 P_____O__PP_P_ SH231967 -19.4386 154.933 10 -1 -19.4000 155.000 996 -19.4386 154.933 TC 10 -19.4288 154.896 1 12 -19.4386 154.933 TC 15 6 134
1967072S15157 1967 22 SP EA DULCIE 1967-03-14 12:00:00 TS -19.4942 155.025 main 549 549 O_____P__OP_O_ jtwc_sh SH231967 -19.5000 155.000 10 -1 -19.4667 155.080 996 -19.5000 155.000 TC 10 -19.4983 154.969 1 13 -19.5000 155.000 TC 15 6 138
1967072S15157 1967 22 SP EA DULCIE 1967-03-14 14:00:00 TS -19.6298 155.152 996 bom main 559 553 P_____O__PP_P_ SH231967 -19.6333 155.128 13 -1 -19.6000 155.200 996 -19.6333 155.128 TC 13 -19.6301 155.120 1 15 -19.6333 155.128 TC 16 5 139
1967072S15157 1967 22 SP EA DULCIE 1967-03-14 15:00:00 TS -19.6958 155.210 main 553 553 P_____P__PP_P_ SH231967 -19.7000 155.193 15 -1 -19.6666 155.230 996 -19.7000 155.193 TC 15 -19.6932 155.199 1 15 -19.7000 155.193 TC 17 5 139
1967072S15157 1967 22 SP EA DULCIE 1967-03-14 17:00:00 TS -19.8258 155.331 996 bom main 555 555 P_____O__PP_P_ SH231967 -19.8333 155.328 18 -1 -19.8000 155.300 996 -19.8333 155.328 TC 18 -19.8163 155.359 1 17 -19.8333 155.328 TC 19 5 137
1967072S15157 1967 22 SP EA DULCIE 1967-03-14 18:00:00 TS -19.8906 155.405 main 558 558 O_____P__OP_O_ jtwc_sh SH231967 -19.9000 155.400 20 -1 -19.8667 155.390 996 -19.9000 155.400 TC 20 -19.8772 155.440 1 18 -19.9000 155.400 TC 20 6 131
1967072S15157 1967 22 SP EA DULCIE 1967-03-14 20:00:00 TS -20.0222 155.574 996 bom main 570 564 P_____O__PO_P_ SH231967 -20.0334 155.564 20 -1 -20.0000 155.600 996 -20.0334 155.564 TC 20 -20.0000 155.600 1 20 -20.0334 155.564 TC 20 6 130
1967072S15157 1967 22 SP EA DULCIE 1967-03-14 21:00:00 TS -20.0885 155.655 main 574 568 P_____P__PP_P_ SH231967 -20.1000 155.650 20 -1 -20.0666 155.669 996 -20.1000 155.650 TC 20 -20.0642 155.676 1 19 -20.1000 155.650 TC 20 6 131
1967072S15157 1967 22 SP EA DULCIE 1967-03-14 23:00:00 TS -20.2209 155.817 996 bom main 574 569 P_____O__PP_P_ SH231967 -20.2333 155.820 20 -1 -20.2000 155.800 996 -20.2333 155.820 TC 20 -20.1918 155.829 1 18 -20.2333 155.820 TC 20 6 131
1967072S15157 1967 22 SP EA DULCIE 1967-03-15 00:00:00 TS -20.2862 155.901 main 569 564 O_____P__OP_O_ jtwc_sh SH231967 -20.3000 155.900 20 -1 -20.2613 155.898 996 -20.3000 155.900 TC 20 -20.2557 155.906 1 18 -20.3000 155.900 TC 20 6 131
1967072S15157 1967 22 SP EA DULCIE 1967-03-15 02:00:00 TS -20.4188 156.056 996 bom main 569 559 P_____O__PP_P_ SH231967 -20.4333 156.036 18 -1 -20.4000 156.100 996 -20.4333 156.036 TC 18 -20.3849 156.058 1 17 -20.4333 156.036 TC 20 6 134
1967072S15157 1967 22 SP EA DULCIE 1967-03-15 03:00:00 TS -20.4910 156.128 main 559 555 P_____P__PP_P_ SH231967 -20.4999 156.100 17 -1 -20.5029 156.175 996 -20.4999 156.100 TC 17 -20.4507 156.133 1 17 -20.4999 156.100 TC 20 6 138
1967072S15157 1967 22 SP EA DULCIE 1967-03-15 05:00:00 TS -20.6355 156.266 996 bom main 561 551 P_____O__PP_P_ SH231967 -20.6333 156.230 15 -1 -20.7000 156.300 996 -20.6333 156.230 TC 15 -20.5856 156.282 1 16 -20.6333 156.230 TC 20 6 137
1967072S15157 1967 22 SP EA DULCIE 1967-03-15 06:00:00 TS -20.6989 156.336 main 551 548 O_____P__OP_O_ jtwc_sh SH231967 -20.7000 156.300 15 -1 -20.7383 156.361 996 -20.7000 156.300 TC 15 -20.6552 156.356 1 15 -20.7000 156.300 TC 20 6 132
1967072S15157 1967 22 SP EA DULCIE 1967-03-15 08:00:00 TS -20.8247 156.489 996 bom main 554 545 P_____O__PO_P_ SH231967 -20.8279 156.464 16 -1 -20.8000 156.500 996 -20.8279 156.464 TC 16 -20.8000 156.500 1 15 -20.8279 156.464 TC 20 6 132
1967072S15157 1967 22 SP EA DULCIE 1967-03-15 09:00:00 TS -20.8981 156.572 main 551 542 P_____P__PP_P_ SH231967 -20.8925 156.550 17 -1 -20.8897 156.603 996 -20.8925 156.550 TC 17 -20.8717 156.569 1 16 -20.8925 156.550 TC 20 6 135
1967072S15157 1967 22 SP EA DULCIE 1967-03-15 11:00:00 TS -21.0536 156.733 996 bom main 540 540 P_____O__PP_P_ SH231967 -21.0276 156.720 19 -1 -21.1000 156.800 996 -21.0276 156.720 TC 19 -21.0192 156.704 1 18 -21.0276 156.720 TC 20 6 137
1967072S15157 1967 22 SP EA DULCIE 1967-03-15 12:00:00 TS -21.1284 156.802 main 547 537 O_____P__OP_O_ jtwc_sh SH231967 -21.1000 156.800 20 -1 -21.1745 156.844 996 -21.1000 156.800 TC 20 -21.0956 156.770 1 19 -21.1000 156.800 TC 20 6 141
1967072S15157 1967 22 SP EA DULCIE 1967-03-15 14:00:00 TS -21.2751 156.926 996 bom main 537 537 P_____O__PP_P_ SH231967 -21.2533 156.941 21 -1 -21.3000 156.900 996 -21.2533 156.941 TC 21 -21.2548 156.901 1 21 -21.2533 156.941 TC 21 6 141
1967072S15157 1967 22 SP EA DULCIE 1967-03-15 15:00:00 TS -21.3507 156.991 main 536 535 P_____P__PP_P_ SH231967 -21.3349 157.008 22 -1 -21.3612 156.959 996 -21.3349 157.008 TC 22 -21.3380 156.966 1 22 -21.3349 157.008 TC 22 6 142
1967072S15157 1967 22 SP EA DULCIE 1967-03-15 17:00:00 TS -21.5114 157.123 996 bom main 535 535 P_____O__PP_P_ SH231967 -21.5083 157.136 24 -1 -21.5000 157.100 996 -21.5083 157.136 TC 24 -21.5130 157.097 1 24 -21.5083 157.136 TC 24 6 144
1967072S15157 1967 22 SP EA DULCIE 1967-03-15 18:00:00 TS -21.6004 157.188 main 535 527 O_____P__OP_O_ jtwc_sh SH231967 -21.6000 157.200 25 -1 -21.5975 157.167 996 -21.6000 157.200 TC 25 -21.6051 157.164 1 25 -21.6000 157.200 TC 25 7 146
1967072S15157 1967 22 SP EA DULCIE 1967-03-15 20:00:00 TS -21.7837 157.320 996 bom main 528 528 P_____O__PO_P_ SH231967 -21.7866 157.333 26 -1 -21.8000 157.300 996 -21.7866 157.333 TC 26 -21.8000 157.300 1 28 -21.7866 157.333 TC 26 7 147
1967072S15157 1967 22 SP EA DULCIE 1967-03-15 21:00:00 TS -21.8728 157.384 main 529 522 P_____P__PP_P_ SH231967 -21.8850 157.400 27 -1 -21.8691 157.367 996 -21.8850 157.400 TC 27 -21.8931 157.351 1 27 -21.8850 157.400 TC 27 7 147
1967072S15157 1967 22 SP EA DULCIE 1967-03-15 23:00:00 TS -22.0599 157.512 998 bom main 523 523 P_____O__PP_P_ SH231967 -22.0917 157.533 29 -1 -22.0000 157.500 998 -22.0917 157.533 TC 29 -22.0877 157.451 1 27 -22.0917 157.533 TC 29 7 148
1967072S15157 1967 22 SP EA DULCIE 1967-03-16 00:00:00 TS -22.1628 157.576 main 525 519 O_____P__OP_O_ jtwc_sh SH231967 -22.2000 157.600 30 -1 -22.0866 157.550 998 -22.2000 157.600 TC 30 -22.1903 157.503 1 27 -22.2000 157.600 TC 30 7 151
1967072S15157 1967 22 SP EA DULCIE 1967-03-16 02:00:00 TS -22.3778 157.698 998 bom main 522 522 P_____O__PP_P_ SH231967 -22.4090 157.707 30 -1 -22.3000 157.700 998 -22.4090 157.707 TC 30 -22.4083 157.619 1 26 -22.4090 157.707 TC 31 8 150
1967072S15157 1967 22 SP EA DULCIE 1967-03-16 03:00:00 TS -22.4944 157.781 main 525 519 P_____P__PP_P_ SH231967 -22.5198 157.763 30 -1 -22.4201 157.870 998 -22.5198 157.763 TC 30 -22.5247 157.687 1 26 -22.5198 157.763 TC 32 9 146
1967072S15157 1967 22 SP EA DULCIE 1967-03-16 05:00:00 TS -22.7520 157.971 998 bom main 527 522 P_____O__PP_P_ SH231967 -22.7634 157.905 30 -1 -22.7000 158.200 998 -22.7634 157.905 TC 30 -22.7747 157.852 1 25 -22.7634 157.905 TC 34 10 148
1967072S15157 1967 22 SP EA DULCIE 1967-03-16 06:00:00 TS -22.8946 158.056 main 531 526 O_____P__OP_O_ jtwc_sh SH231967 -22.9000 158.000 30 -1 -22.8585 158.180 998 -22.9000 158.000 TC 30 -22.9093 157.953 1 25 -22.9000 158.000 TC 35 11 148
1967072S15157 1967 22 SP EA DULCIE 1967-03-16 08:00:00 TS -23.2040 158.274 998 bom main 536 531 P_____O__PO_P_ SH231967 -23.2039 158.228 30 -1 -23.2000 158.200 998 -23.2039 158.228 TC 30 -23.2000 158.200 1 25 -23.2039 158.228 TC 35 12 142
1967072S15157 1967 22 SP EA DULCIE 1967-03-16 09:00:00 TS -23.3677 158.458 main 546 546 P_____P__PP_P_ SH231967 -23.3697 158.368 30 -1 -23.3674 158.517 998 -23.3697 158.368 TC 30 -23.3521 158.364 1 -23.3697 158.368 TC 35 15 132
1967072S15157 1967 22 SP EA DULCIE 1967-03-16 11:00:00 TS -23.7098 158.890 998 bom main 575 575 P_____O__PP_P_ SH231967 -23.7195 158.703 30 -1 -23.7000 159.300 998 -23.7195 158.703 TC 30 -23.6778 158.743 1 -23.7195 158.703 TC 35 16 132
1967072S15157 1967 22 SP EA DULCIE 1967-03-16 12:00:00 TS -23.8852 159.088 main 589 589 O_____P__OP_O_ jtwc_sh SH231967 -23.9000 158.900 30 -1 -23.8608 159.478 998 -23.9000 158.900 TC 30 -23.8504 158.953 1 -23.9000 158.900 TC 35 996 15 134
1967072S15157 1967 22 SP EA DULCIE 1967-03-16 14:00:00 TS -24.2378 159.496 998 bom main 622 620 P_____O__PP_P_ SH231967 -24.2538 159.369 30 -1 -24.2000 159.700 998 -24.2538 159.369 TC 30 -24.2123 159.401 1 -24.2538 159.369 TC 35 16 133
1967072S15157 1967 22 SP EA DULCIE 1967-03-16 15:00:00 TS -24.4224 159.726 main 628 612 P_____P__PP_P_ SH231967 -24.4355 159.627 30 -1 -24.3922 159.890 998 -24.4355 159.627 TC 30 -24.4008 159.635 1 -24.4355 159.627 TC 35 17 132
1967072S15157 1967 22 SP MM DULCIE 1967-03-16 17:00:00 TS -24.8040 160.196 1000 bom main 612 610 P_____O__PP_P_ SH231967 -24.8086 160.151 30 -1 -24.8000 160.300 1000 -24.8086 160.151 TC 30 -24.7903 160.109 1 -24.8086 160.151 TC 35 17 133
1967072S15157 1967 22 SP MM DULCIE 1967-03-16 18:00:00 TS -24.9984 160.418 main 610 603 O_____P__OP_O_ jtwc_sh SH231967 -25.0000 160.400 30 -1 -24.9999 160.464 1000 -25.0000 160.400 TC 30 -24.9906 160.345 1 -25.0000 160.400 TC 35 17 135
1967072S15157 1967 22 SP MM DULCIE 1967-03-16 20:00:00 TS -25.3909 160.834 1000 bom main 612 605 P_____O__PO_P_ SH231967 -25.3862 160.830 30 -1 -25.4000 160.800 1000 -25.3862 160.830 TC 30 -25.4000 160.800 1 -25.3862 160.830 TC 33 16 136
1967072S15157 1967 22 SP MM DULCIE 1967-03-16 21:00:00 TS -25.5903 161.043 main 615 608 P_____P__PP_P_ SH231967 -25.5845 161.031 30 -1 -25.5947 161.028 1000 -25.5845 161.031 TC 30 -25.6084 161.015 1 -25.5845 161.031 TC 32 16 138
1967072S15157 1967 22 SP MM DULCIE 1967-03-16 23:00:00 TS -25.9996 161.447 1000 bom main 625 619 P_____O__PP_P_ SH231967 -25.9915 161.414 30 -1 -26.0000 161.500 1000 -25.9915 161.414 TC 30 -26.0316 161.421 1 -25.9915 161.414 TC 30 16 140
1967072S15157 1967 22 SP MM DULCIE 1967-03-17 00:00:00 TS -26.2128 161.634 main 632 627 O_____P__OP_O_ jtwc_sh SH231967 -26.2000 161.600 30 -1 -26.2308 161.693 1000 -26.2000 161.600 TC 30 -26.2459 161.613 1 -26.2000 161.600 TC 30 16 143
1967072S15157 1967 22 SP MM DULCIE 1967-03-17 02:00:00 TS -26.6473 161.982 1000 bom main 651 651 P_____O__PP_P_ SH231967 -26.6263 161.968 28 -1 -26.7000 162.000 1000 -26.6263 161.968 TC 28 -26.6792 161.980 1 -26.6263 161.968 TC 28 16 145
1967072S15157 1967 22 SP MM DULCIE 1967-03-17 03:00:00 TS -26.8657 162.139 main 671 665 P_____P__PP_P_ SH231967 -26.8430 162.151 27 -1 -26.9023 162.095 1000 -26.8430 162.151 TC 27 -26.8977 162.156 1 -26.8430 162.151 TC 27 15 147
1967072S15157 1967 22 SP MM DULCIE 1967-03-17 05:00:00 TS -27.2968 162.447 1000 bom main 689 683 P_____O__PP_P_ SH231967 -27.2805 162.517 25 -1 -27.3000 162.300 1000 -27.2805 162.517 TC 25 -27.3373 162.498 1 -27.2805 162.517 TC 25 16 147
1967072S15157 1967 22 SP MM DULCIE 1967-03-17 06:00:00 TS -27.5198 162.614 main 695 695 O_____P__OP_O_ jtwc_sh SH231967 -27.5000 162.700 25 -1 -27.5213 162.488 1000 -27.5000 162.700 TC 25 -27.5580 162.666 1 -27.5000 162.700 TC 25 17 145
1967072S15157 1967 22 SP MM DULCIE 1967-03-17 08:00:00 NR -28.0000 163.000 1000 bom main 722 ______O___O___ SH231967 -1 -28.0000 163.000 1000 TC -28.0000 163.000 1 TC 18 145

Digital Typhoon Data and Search

About IBTrACS Database

This database is a web-friendly format of International Best Track Archive for Climate Stewardship (IBTrACS), a global best track data archive curated by NOAA dating back to 1842.

Updated: 2021-10-21